Time;durP1;ratioP1;P1;durP2;ratioP2;P2;SDS_P1;SDS_P2;PMS_P1;PMS_P2;Temp;Humidity;BMP_temperature;BMP_pressure;BME280_temperature;BME280_humidity;BME280_pressure;Samples;Min_cycle;Max_cycle;Signal;HPM_P1;HPM_P2
2022/02/01 00:02:13;;;;;;;;;;;2.00;99.90;;;0.98;100.00;95223.41;10508966;28;1741;-70
2022/02/01 00:07:24;;;;;;;;;;;2.00;99.90;;;0.93;100.00;95229.38;10503690;28;1914;-71
2022/02/01 00:12:40;;;;;;;;;;;2.00;99.90;;;1.01;100.00;95226.41;10509531;28;1885;-71
2022/02/01 00:18:11;;;;;;;;;;;2.00;99.90;;;0.92;100.00;95214.53;10515956;28;1884;-72
2022/02/01 00:34:08;;;;;;;;;;;1.90;99.90;;;0.91;100.00;95205.00;10548520;28;2059;-72
2022/02/01 00:39:14;;;;;;;;;;;1.90;99.90;;;0.80;100.00;95225.09;10547362;28;1873;-72
2022/02/01 00:44:17;;;;;;;;;;;1.90;99.90;;;0.68;100.00;95220.78;10554466;28;1894;-70
2022/02/01 00:49:20;;;;;;;;;;;1.80;99.90;;;0.58;100.00;95212.63;10527844;28;1909;-71
2022/02/01 00:54:24;;;;;;;;;;;1.70;99.90;;;0.46;100.00;95221.31;10543703;28;1886;-71
2022/02/01 00:59:27;;;;;;;;;;;1.60;99.90;;;0.54;100.00;95234.22;10534408;28;1834;-72
2022/02/01 01:04:30;;;;;;;;;;;1.60;99.90;;;0.46;100.00;95255.69;10552938;28;1798;-71
2022/02/01 01:09:34;;;;;;;;;;;1.50;99.90;;;0.27;100.00;95251.44;10537907;28;1890;-72
2022/02/01 01:15:04;;;;;;;;;;;1.40;99.90;;;0.09;100.00;95256.75;10532948;28;1856;-71
2022/02/01 01:57:35;;;;;;;;;;;0.90;99.90;;;-0.04;100.00;95313.97;10507563;28;1883;-74
2022/02/01 02:02:41;;;;;;;;;;;1.00;99.90;;;0.02;100.00;95314.16;10517681;28;2026;-73
2022/02/01 02:07:44;;;;;;;;;;;1.20;99.90;;;0.08;100.00;95323.84;10517742;28;1934;-73
2022/02/01 02:12:57;;;;;;;;;;;1.10;99.90;;;0.08;100.00;95323.84;10512290;28;1834;-71
2022/02/01 02:18:01;;;;;;;;;;;0.90;99.90;;;0.16;100.00;95315.63;10506410;28;2034;-70
2022/02/01 02:23:05;;;;;;;;;;;1.20;99.90;;;0.18;100.00;95306.44;10512281;28;1847;-70
2022/02/01 02:28:20;;;;;;;;;;;1.20;99.90;;;0.20;100.00;95324.72;10510476;28;1902;-70
2022/02/01 02:33:24;;;;;;;;;;;1.90;99.90;;;0.24;100.00;95337.28;10509758;28;1821;-70
2022/02/01 02:38:33;;;;;;;;;;;1.50;99.90;;;0.27;100.00;95346.63;10513847;28;1951;-72
2022/02/01 02:48:56;;;;;;;;;;;1.30;99.90;;;0.32;100.00;95373.22;10505714;28;1937;-71
2022/02/01 02:53:59;;;;;;;;;;;1.30;99.90;;;0.41;100.00;95397.50;10505559;28;1870;-71
2022/02/01 02:59:02;;;;;;;;;;;1.40;99.90;;;0.41;100.00;95405.44;10511811;28;1959;-71
2022/02/01 03:04:06;;;;;;;;;;;1.40;99.90;;;0.46;100.00;95417.00;10507872;28;1891;-70
2022/02/01 03:09:09;;;;;;;;;;;1.40;99.90;;;0.44;100.00;95424.31;10500448;28;1891;-70
2022/02/01 03:14:25;;;;;;;;;;;1.40;99.90;;;0.41;100.00;95445.91;10509915;28;1935;-69
2022/02/01 03:19:49;;;;;;;;;;;1.40;99.90;;;0.42;100.00;95442.25;10501660;28;1913;-70
2022/02/01 03:24:52;;;;;;;;;;;1.40;99.90;;;0.35;100.00;95452.06;10503033;28;1967;-72
2022/02/01 03:29:56;;;;;;;;;;;1.40;99.90;;;0.41;100.00;95467.06;10518181;28;1862;-70
2022/02/01 03:34:59;;;;;;;;;;;1.40;99.90;;;0.39;100.00;95458.56;10510352;28;1827;-72
2022/02/01 03:40:02;;;;;;;;;;;1.40;99.90;;;0.34;100.00;95482.19;10511475;28;2034;-71
2022/02/01 03:45:05;;;;;;;;;;;1.30;99.90;;;0.26;100.00;95479.81;10512163;28;1883;-71
2022/02/01 03:50:08;;;;;;;;;;;1.30;99.90;;;0.19;100.00;95505.47;10505648;28;1803;-70
2022/02/01 03:55:12;;;;;;;;;;;1.30;99.90;;;0.28;100.00;95525.34;10510249;28;1847;-70
2022/02/01 04:00:15;;;;;;;;;;;1.20;99.90;;;0.30;100.00;95547.09;10509055;28;1914;-72
2022/02/01 04:05:18;;;;;;;;;;;1.30;99.90;;;0.16;100.00;95578.09;10507366;28;1788;-69
2022/02/01 04:10:21;;;;;;;;;;;1.20;99.90;;;-0.04;100.00;95559.72;10502698;28;1970;-69
2022/02/01 04:15:27;;;;;;;;;;;1.10;99.90;;;-0.08;100.00;95578.84;10506913;28;1892;-69
2022/02/01 04:20:30;;;;;;;;;;;1.00;99.90;;;-0.14;100.00;95569.94;10513492;28;1914;-70
2022/02/01 04:25:33;;;;;;;;;;;0.90;99.90;;;-0.07;100.00;95570.69;10519079;28;1913;-70
2022/02/01 04:30:36;;;;;;;;;;;0.90;99.90;;;0.01;100.00;95585.53;10507046;28;1967;-70
2022/02/01 04:35:40;;;;;;;;;;;1.00;99.90;;;-0.03;100.00;95579.84;10515633;28;2001;-71
2022/02/01 04:40:43;;;;;;;;;;;1.00;99.90;;;-0.15;100.00;95584.16;10515473;28;1918;-70
2022/02/01 04:45:47;;;;;;;;;;;0.90;99.90;;;-0.18;100.00;95587.25;10519994;28;1807;-70
2022/02/01 04:50:50;;;;;;;;;;;0.90;99.90;;;-0.19;100.00;95604.13;10512823;28;1817;-70
2022/02/01 04:55:54;;;;;;;;;;;0.90;99.90;;;-0.22;100.00;95603.72;10518387;28;1921;-70
2022/02/01 05:00:58;;;;;;;;;;;0.90;99.90;;;-0.25;100.00;95626.09;10519125;28;1908;-69
2022/02/01 05:06:02;;;;;;;;;;;0.80;99.90;;;-0.25;100.00;95652.50;10536453;28;1882;-70
2022/02/01 05:11:06;;;;;;;;;;;0.80;99.90;;;-0.17;100.00;95657.56;10547588;28;1846;-71
2022/02/01 05:16:18;;;;;;;;;;;0.90;99.90;;;-0.11;100.00;95663.84;10545667;28;1859;-69
2022/02/01 05:21:23;;;;;;;;;;;0.90;99.90;;;-0.06;100.00;95679.88;10539095;28;1965;-70
2022/02/01 05:26:27;;;;;;;;;;;1.00;99.90;;;0.06;100.00;95685.28;10512429;28;1867;-70
2022/02/01 05:31:31;;;;;;;;;;;1.00;99.90;;;0.04;100.00;95687.34;10514424;28;1759;-71
2022/02/01 05:36:35;;;;;;;;;;;1.00;99.90;;;0.01;100.00;95690.41;10514300;28;1913;-71
2022/02/01 05:41:38;;;;;;;;;;;1.10;99.90;;;0.00;100.00;95681.69;10507689;28;2063;-72
2022/02/01 05:46:41;;;;;;;;;;;1.00;99.90;;;0.02;100.00;95695.50;10512251;28;1871;-70
2022/02/01 05:51:48;;;;;;;;;;;1.10;99.90;;;0.09;100.00;95711.31;10512614;28;2077;-70
2022/02/01 05:56:51;;;;;;;;;;;1.10;99.90;;;0.15;100.00;95731.63;10496011;28;1799;-70
2022/02/01 06:01:55;;;;;;;;;;;1.30;99.90;;;0.17;100.00;95745.44;10513641;28;1914;-69
2022/02/01 06:06:58;;;;;;;;;;;1.20;99.90;;;0.18;100.00;95752.34;10508540;28;1983;-69
2022/02/01 06:12:01;;;;;;;;;;;1.20;99.90;;;0.25;100.00;95747.84;10508515;28;2164;-71
2022/02/01 06:17:05;;;;;;;;;;;1.30;99.90;;;0.37;100.00;95746.16;10506851;28;1875;-70
2022/02/01 06:22:08;;;;;;;;;;;1.40;99.90;;;0.38;100.00;95741.69;10503476;28;1910;-71
2022/02/01 06:27:11;;;;;;;;;;;1.40;99.90;;;0.36;100.00;95738.44;10513247;28;1789;-69
2022/02/01 06:32:14;;;;;;;;;;;1.40;99.90;;;0.41;100.00;95736.00;10505159;28;1795;-69
2022/02/01 06:37:18;;;;;;;;;;;1.40;99.90;;;0.39;100.00;95738.84;10504442;28;1906;-69
2022/02/01 06:42:20;;;;;;;;;;;1.40;99.90;;;0.21;100.00;95736.88;10519504;28;1918;-71
2022/02/01 06:47:23;;;;;;;;;;;1.40;99.90;;;0.02;100.00;95747.53;10545344;28;1928;-70
2022/02/01 06:52:26;;;;;;;;;;;1.20;99.90;;;-0.04;100.00;95755.25;10528279;28;1820;-71
2022/02/01 06:57:29;;;;;;;;;;;1.10;99.90;;;-0.06;100.00;95759.97;10538347;28;1874;-70
2022/02/01 07:02:32;;;;;;;;;;;1.00;99.90;;;-0.01;100.00;95781.25;10521465;28;1971;-70
2022/02/01 07:07:36;;;;;;;;;;;1.00;99.90;;;0.05;100.00;95784.09;10518010;28;1846;-71
2022/02/01 07:12:39;;;;;;;;;;;1.00;99.90;;;0.06;100.00;95785.72;10512530;28;1863;-69
2022/02/01 07:17:42;;;;;;;;;;;1.00;99.90;;;-0.01;100.00;95773.34;10513255;28;1995;-70
2022/02/01 07:22:46;;;;;;;;;;;1.00;99.90;;;0.03;100.00;95773.75;10499562;28;1954;-70
2022/02/01 07:27:49;;;;;;;;;;;1.50;99.90;;;0.01;100.00;95788.19;10504616;28;1754;-70
2022/02/01 07:32:53;;;;;;;;;;;1.00;99.90;;;0.05;100.00;95813.97;10517200;28;1932;-70
2022/02/01 07:37:56;;;;;;;;;;;1.00;99.90;;;0.09;100.00;95806.47;10519249;28;1792;-71
2022/02/01 07:42:59;;;;;;;;;;;1.10;99.90;;;0.32;100.00;95827.97;10522004;28;1969;-69
2022/02/01 07:48:01;;;;;;;;;;;1.20;99.90;;;0.21;100.00;95841.81;10502247;28;1809;-70
2022/02/01 07:53:05;;;;;;;;;;;1.20;99.90;;;0.13;100.00;95823.56;10506760;28;1930;-71
2022/02/01 07:58:08;;;;;;;;;;;1.20;99.90;;;0.02;100.00;95843.47;10518813;28;1798;-70
2022/02/01 08:03:12;;;;;;;;;;;1.10;99.90;;;0.01;100.00;95857.72;10522526;28;1910;-72
2022/02/01 08:08:15;;;;;;;;;;;1.10;99.90;;;-0.01;100.00;95880.88;10516681;28;1806;-71
2022/02/01 08:19:02;;;;;;;;;;;0.90;99.90;;;-0.07;100.00;95861.38;10520029;28;1721;-70
2022/02/01 08:24:24;;;;;;;;;;;0.90;99.90;;;0.05;100.00;95855.47;10524323;28;1917;-70
2022/02/01 08:29:27;;;;;;;;;;;1.60;99.90;;;0.12;100.00;95870.28;10521972;28;1901;-69
2022/02/01 08:34:30;;;;;;;;;;;1.00;99.90;;;0.24;100.00;95867.84;10531493;28;1834;-70
2022/02/01 08:39:33;;;;;;;;;;;1.20;99.90;;;0.31;100.00;95891.63;10527699;28;1883;-71
2022/02/01 08:44:36;;;;;;;;;;;1.30;99.90;;;0.26;100.00;95902.84;10517241;28;1831;-70
2022/02/01 08:49:39;;;;;;;;;;;1.30;99.90;;;0.19;100.00;95909.94;10515395;28;1899;-70
2022/02/01 08:54:43;;;;;;;;;;;1.20;99.90;;;0.14;100.00;95907.13;10521852;28;1866;-72
2022/02/01 08:59:46;;;;;;;;;;;1.20;99.90;;;0.22;100.00;95920.09;10514282;28;1914;-73
2022/02/01 09:04:49;;;;;;;;;;;1.20;99.90;;;0.24;100.00;95931.28;10521392;28;1858;-70
2022/02/01 09:09:52;;;;;;;;;;;1.20;99.90;;;0.23;100.00;95909.31;10513751;28;1855;-71
2022/02/01 09:14:55;;;;;;;;;;;1.30;99.90;;;0.17;100.00;95925.19;10519396;28;1946;-71
2022/02/01 09:20:19;;;;;;;;;;;1.20;99.90;;;0.21;100.00;95937.81;10512533;28;1906;-70
2022/02/01 09:25:22;;;;;;;;;;;1.80;99.90;;;0.31;100.00;95926.00;10516837;28;1794;-71
2022/02/01 09:30:25;;;;;;;;;;;1.30;99.90;;;0.34;100.00;95904.44;10521030;28;1938;-70
2022/02/01 09:35:28;;;;;;;;;;;1.30;99.90;;;0.61;100.00;95911.28;10519438;28;1823;-72
2022/02/01 09:40:31;;;;;;;;;;;1.40;99.90;;;0.47;100.00;95936.16;10500620;28;2001;-73
2022/02/01 09:45:36;;;;;;;;;;;1.50;99.90;;;0.54;100.00;95940.41;10518087;28;1803;-71
2022/02/01 09:50:41;;;;;;;;;;;1.50;99.90;;;0.78;100.00;95933.63;10516884;28;1880;-70
2022/02/01 09:55:44;;;;;;;;;;;1.60;99.90;;;0.61;99.91;95944.88;10519029;28;1791;-72
2022/02/01 10:00:53;;;;;;;;;;;1.70;99.90;;;0.65;100.00;95948.72;10520010;28;1909;-71
2022/02/01 10:05:56;;;;;;;;;;;1.70;99.90;;;0.91;100.00;95964.53;10541188;28;1842;-72
2022/02/01 10:10:59;;;;;;;;;;;1.80;99.90;;;0.80;100.00;95949.28;10528860;28;1810;-72
2022/02/01 10:16:05;;;;;;;;;;;1.80;99.90;;;0.74;100.00;95956.22;10539598;28;1506;-71
2022/02/01 10:21:08;;;;;;;;;;;1.80;99.90;;;0.70;100.00;95948.91;10544178;28;1887;-69
2022/02/01 10:26:17;;;;;;;;;;;1.80;99.90;;;0.95;100.00;95949.84;10540862;28;1948;-71
2022/02/01 10:31:29;;;;;;;;;;;1.90;99.90;;;0.93;97.47;95933.38;10530852;28;1854;-71
2022/02/01 10:36:32;;;;;;;;;;;3.50;99.90;;;1.15;97.22;95946.34;10529652;28;1890;-72
2022/02/01 10:41:36;;;;;;;;;;;2.00;99.90;;;1.35;95.48;95931.97;10537118;28;1882;-71
2022/02/01 10:46:39;;;;;;;;;;;2.30;99.90;;;1.39;95.19;95935.00;10534701;28;1835;-72
2022/02/01 10:51:42;;;;;;;;;;;2.30;99.90;;;1.35;94.43;95923.22;10521852;28;1858;-71
2022/02/01 10:57:06;;;;;;;;;;;2.30;99.90;;;1.42;94.68;95902.81;10515695;28;1924;-74
2022/02/01 11:02:09;;;;;;;;;;;2.30;99.90;;;1.53;93.43;95912.72;10516985;28;1910;-70
2022/02/01 11:07:12;;;;;;;;;;;2.50;99.90;;;1.53;92.40;95903.97;10529525;28;1750;-71
2022/02/01 11:12:15;;;;;;;;;;;2.60;99.90;;;1.59;89.80;95893.31;10518614;28;1874;-73
2022/02/01 11:17:18;;;;;;;;;;;2.60;99.90;;;1.68;91.63;95911.59;10514341;28;1740;-73
2022/02/01 11:22:22;;;;;;;;;;;2.60;99.90;;;1.59;88.88;95906.56;10534463;28;1954;-73
2022/02/01 11:27:32;;;;;;;;;;;2.60;99.90;;;1.65;88.72;95888.16;10535200;28;1752;-73
2022/02/01 11:32:34;;;;;;;;;;;2.70;99.90;;;1.72;89.85;95867.72;10533943;28;1971;-74
2022/02/01 11:37:46;;;;;;;;;;;2.70;99.90;;;2.01;90.63;95872.41;10538012;28;1847;-72
2022/02/01 11:42:50;;;;;;;;;;;2.80;99.90;;;2.43;87.32;95862.00;10514341;28;1918;-72
2022/02/01 11:47:53;;;;;;;;;;;3.20;99.90;;;2.56;86.82;95847.78;10525457;28;1855;-73
2022/02/01 11:53:17;;;;;;;;;;;3.30;99.90;;;2.38;87.74;95833.47;10532632;28;1799;-72
2022/02/01 11:58:19;;;;;;;;;;;3.40;99.90;;;2.51;87.54;95821.91;10534297;28;1911;-71
2022/02/01 12:03:23;;;;;;;;;;;3.40;99.90;;;2.42;85.73;95810.00;10511170;28;1896;-70
2022/02/01 12:08:27;;;;;;;;;;;3.50;99.90;;;2.41;87.41;95797.72;10506474;28;1935;-69
2022/02/01 12:13:32;;;;;;;;;;;3.30;99.90;;;2.48;86.76;95785.19;10514757;28;1882;-71
2022/02/01 12:18:35;;;;;;;;;;;3.40;99.90;;;2.32;85.34;95756.63;10506159;28;1857;-70
2022/02/01 12:23:40;;;;;;;;;;;3.30;99.90;;;2.30;86.10;95751.56;10511309;28;1925;-70
2022/02/01 12:28:43;;;;;;;;;;;3.30;99.90;;;2.42;85.08;95727.75;10512714;28;1786;-69
2022/02/01 12:33:45;;;;;;;;;;;3.30;99.90;;;2.34;85.38;95725.38;10507457;28;1866;-71
2022/02/01 12:38:50;;;;;;;;;;;3.40;99.90;;;2.25;85.61;95726.72;10516492;28;1866;-70
2022/02/01 12:49:13;;;;;;;;;;;3.40;99.90;;;2.13;86.21;95724.00;10497511;28;1854;-69
2022/02/01 12:54:16;;;;;;;;;;;3.20;99.90;;;1.80;88.89;95727.00;10516237;28;2055;-71
2022/02/01 12:59:21;;;;;;;;;;;3.00;99.90;;;1.87;91.06;95723.25;10518768;28;1825;-71
2022/02/01 13:04:25;;;;;;;;;;;2.90;99.90;;;1.77;93.78;95722.94;10514910;28;1918;-69
2022/02/01 13:15:07;;;;;;;;;;;2.90;99.90;;;1.71;95.68;95684.06;10518860;28;1763;-70
2022/02/01 13:20:12;;;;;;;;;;;2.80;99.90;;;1.74;94.60;95698.75;10513626;28;1871;-69
2022/02/01 13:25:31;;;;;;;;;;;3.40;99.90;;;1.76;93.15;95686.88;10509730;28;1925;-71
2022/02/01 13:30:35;;;;;;;;;;;2.80;99.90;;;1.74;91.56;95701.38;10514043;28;1870;-69
2022/02/01 13:35:39;;;;;;;;;;;2.80;99.90;;;1.45;88.37;95668.44;10512013;28;1971;-70
2022/02/01 13:40:42;;;;;;;;;;;2.60;99.90;;;1.58;87.57;95657.72;10512531;28;1979;-71
2022/02/01 13:45:45;;;;;;;;;;;2.60;99.90;;;1.57;86.51;95654.25;10509626;28;1755;-70
2022/02/01 13:50:52;;;;;;;;;;;2.60;99.90;;;1.66;87.65;95633.59;10513214;28;1833;-68
2022/02/01 13:55:57;;;;;;;;;;;2.60;99.90;;;1.59;87.95;95644.28;10513311;28;1874;-71
2022/02/01 14:01:00;;;;;;;;;;;2.70;99.90;;;1.29;89.23;95628.28;10512064;28;1981;-70
2022/02/01 14:06:09;;;;;;;;;;;2.50;99.90;;;1.34;89.71;95646.97;10523297;28;1840;-71
2022/02/01 14:11:38;;;;;;;;;;;2.50;99.90;;;1.44;89.00;95641.16;10521805;28;1850;-70
2022/02/01 14:22:59;;;;;;;;;;;;;;;1.31;87.96;95596.28;10555952;28;1913;-70
2022/02/01 14:28:09;;;;;;;;;;;2.30;99.90;;;1.43;88.23;95602.47;10536930;27;2315;-70
2022/02/01 14:39:09;;;;;;;;;;;2.40;99.90;;;1.34;86.17;95603.78;10511206;28;1924;-69
2022/02/01 14:44:31;;;;;;;;;;;2.40;99.90;;;1.37;87.17;95566.25;10511662;28;1975;-68
2022/02/01 14:49:35;;;;;;;;;;;2.40;99.90;;;1.25;88.09;95555.59;10526178;28;1926;-69
2022/02/01 14:54:43;;;;;;;;;;;2.30;99.90;;;1.15;89.51;95551.84;10517804;28;1953;-68
2022/02/01 15:05:21;;;;;;;;;;;2.10;99.90;;;0.99;96.09;95535.50;10523854;28;1988;-69
2022/02/01 15:15:46;;;;;;;;;;;1.90;99.90;;;0.76;96.77;95524.72;10517007;28;1775;-69
2022/02/01 15:20:52;;;;;;;;;;;;;;;0.63;95.50;95519.56;10509968;28;1901;-71
2022/02/01 15:25:56;;;;;;;;;;;1.60;99.90;;;0.57;94.99;95518.59;10508618;28;1980;-70
2022/02/01 15:31:02;;;;;;;;;;;1.60;99.90;;;0.59;95.22;95499.88;10506748;28;1711;-70
2022/02/01 15:36:08;;;;;;;;;;;1.60;99.90;;;0.31;99.83;95519.63;10512052;28;1932;-70
2022/02/01 15:57:20;;;;;;;;;;;1.10;99.90;;;-0.08;100.00;95447.53;10512107;28;2175;-70
2022/02/01 16:02:26;;;;;;;;;;;1.20;99.90;;;-0.07;100.00;95453.63;10515765;28;1917;-71
2022/02/01 16:07:34;;;;;;;;;;;1.00;99.90;;;-0.07;100.00;95435.13;10515850;28;1873;-71
2022/02/01 16:12:59;;;;;;;;;;;1.00;99.90;;;-0.10;100.00;95428.47;10517953;28;1849;-73
2022/02/01 16:18:01;;;;;;;;;;;1.00;99.90;;;-0.09;100.00;95398.38;10513063;28;1880;-71
2022/02/01 16:23:06;;;;;;;;;;;1.00;99.90;;;-0.03;100.00;95359.72;10512842;28;1983;-70
2022/02/01 16:28:08;;;;;;;;;;;1.00;99.90;;;0.07;100.00;95361.88;10521275;28;1778;-71
2022/02/01 16:33:12;;;;;;;;;;;1.10;99.90;;;0.15;100.00;95340.44;10520163;28;1810;-70
2022/02/01 16:38:15;;;;;;;;;;;1.20;99.90;;;0.17;100.00;95320.69;10515984;28;1885;-70
2022/02/01 16:43:36;;;;;;;;;;;1.20;99.90;;;0.28;100.00;95332.38;10531192;28;1914;-69
2022/02/01 16:48:39;;;;;;;;;;;1.30;99.90;;;0.37;99.47;95325.75;10529960;28;1815;-70
2022/02/01 16:53:46;;;;;;;;;;;1.40;99.90;;;0.43;98.10;95301.06;10529657;28;1272;-69
2022/02/01 16:58:54;;;;;;;;;;;1.50;99.90;;;0.49;96.19;95289.59;10549988;27;2187;-69
2022/02/01 17:03:58;;;;;;;;;;;1.50;99.90;;;0.59;95.75;95294.38;10520602;28;1965;-69
2022/02/01 17:09:02;;;;;;;;;;;1.60;99.90;;;0.63;95.17;95279.66;10521713;28;1396;-69
2022/02/01 17:14:12;;;;;;;;;;;1.70;99.90;;;0.70;95.15;95255.75;10508497;28;1375;-68
2022/02/01 17:19:30;;;;;;;;;;;2.40;99.90;;;0.80;93.54;95256.03;10514376;28;1504;-69
2022/02/01 17:24:33;;;;;;;;;;;1.80;99.90;;;0.85;94.84;95247.44;10510932;28;1918;-69
2022/02/01 17:29:37;;;;;;;;;;;1.90;99.90;;;0.88;94.62;95249.63;10547717;27;1513;-69
2022/02/01 17:34:40;;;;;;;;;;;1.90;99.90;;;0.91;94.16;95238.59;10521245;28;1880;-69
2022/02/01 17:39:44;;;;;;;;;;;1.90;99.90;;;0.93;94.21;95237.31;10508958;28;1397;-68
2022/02/01 17:44:47;;;;;;;;;;;2.00;99.90;;;1.02;95.89;95220.09;10512148;28;1913;-70
2022/02/01 17:49:50;;;;;;;;;;;2.00;99.90;;;1.11;95.10;95217.13;10530562;28;1369;-69
2022/02/01 17:54:53;;;;;;;;;;;2.10;99.90;;;1.16;94.48;95206.66;10517376;28;1597;-68
2022/02/01 17:59:57;;;;;;;;;;;2.20;99.90;;;1.15;94.71;95218.28;10537170;27;1359;-68
2022/02/01 18:05:00;;;;;;;;;;;2.10;99.90;;;1.16;94.11;95204.81;10507582;28;2058;-69
2022/02/01 18:10:04;;;;;;;;;;;2.10;99.90;;;1.19;94.88;95222.06;10505866;28;1391;-69
2022/02/01 18:15:08;;;;;;;;;;;2.20;99.90;;;1.27;94.41;95224.38;10515567;28;1421;-69
2022/02/01 18:20:11;;;;;;;;;;;2.30;99.90;;;1.30;95.32;95219.44;10511284;28;1036;-69
2022/02/01 18:25:17;;;;;;;;;;;2.30;99.90;;;1.31;95.56;95207.00;10508852;28;1914;-68
2022/02/01 18:30:30;;;;;;;;;;;2.40;99.90;;;1.36;95.21;95201.84;10512980;28;1478;-69
2022/02/01 18:35:33;;;;;;;;;;;2.40;99.90;;;1.37;95.63;95211.38;10501955;28;1365;-69
2022/02/01 18:40:36;;;;;;;;;;;2.40;99.90;;;1.40;95.42;95224.19;10516305;28;1482;-69
2022/02/01 18:45:45;;;;;;;;;;;2.50;99.90;;;1.34;96.18;95203.91;10513421;28;1993;-69
2022/02/01 18:50:59;;;;;;;;;;;2.40;99.90;;;1.33;96.44;95218.16;10534273;28;1673;-69
2022/02/01 19:06:57;;;;;;;;;;;2.40;99.90;;;1.37;98.72;95206.09;10510334;28;1917;-70
2022/02/01 19:12:00;;;;;;;;;;;2.40;99.90;;;1.40;98.57;95195.06;10509616;28;1861;-68
2022/02/01 19:17:12;;;;;;;;;;;2.50;99.90;;;1.30;98.33;95200.09;10512288;28;1837;-69
2022/02/01 19:22:15;;;;;;;;;;;2.40;99.90;;;1.34;99.75;95209.22;10535810;28;1949;-68
2022/02/01 19:27:18;;;;;;;;;;;2.40;99.90;;;1.43;100.00;95215.75;10527826;28;1792;-68
2022/02/01 19:32:22;;;;;;;;;;;2.40;99.90;;;1.43;100.00;95189.28;10521691;28;1877;-69
2022/02/01 19:37:27;;;;;;;;;;;;;;;1.43;100.00;95183.97;10513379;28;2004;-68
2022/02/01 19:42:35;;;;;;;;;;;;;;;1.40;100.00;95188.91;10512589;28;1902;-69
2022/02/01 19:47:40;;;;;;;;;;;;;;;1.47;100.00;95194.94;10520940;28;1889;-68
2022/02/01 19:52:43;;;;;;;;;;;;;;;1.46;100.00;95159.66;10519006;28;1834;-68
2022/02/01 19:57:46;;;;;;;;;;;;;;;1.52;100.00;95152.66;10530424;28;1755;-69
2022/02/01 20:02:50;;;;;;;;;;;;;;;1.55;100.00;95160.94;10530629;28;1989;-70
2022/02/01 20:07:55;;;;;;;;;;;;;;;1.54;100.00;95185.84;10530285;28;1965;-67
2022/02/01 20:12:58;;;;;;;;;;;;;;;1.67;100.00;95162.78;10538242;27;1887;-70
2022/02/01 20:18:02;;;;;;;;;;;;;;;1.67;100.00;95168.09;10540437;22;2226;-71
2022/02/01 20:23:06;;;;;;;;;;;;;;;1.65;100.00;95160.34;10525009;28;1983;-70
2022/02/01 20:28:11;;;;;;;;;;;;;;;1.70;100.00;95179.00;10519929;28;1822;-70
2022/02/01 20:33:17;;;;;;;;;;;;;;;1.61;100.00;95162.66;10521701;28;1810;-71
2022/02/01 20:38:24;;;;;;;;;;;;;;;1.65;100.00;95175.44;10526449;28;1849;-70
2022/02/01 20:43:28;;;;;;;;;;;;;;;1.61;100.00;95181.22;10521329;28;1975;-71
2022/02/01 20:48:31;;;;;;;;;;;;;;;1.69;100.00;95176.59;10522835;28;1731;-71
2022/02/01 20:53:35;;;;;;;;;;;;;;;1.71;100.00;95174.50;10522092;28;1870;-72
2022/02/01 20:58:41;;;;;;;;;;;;;;;1.78;100.00;95164.59;10511772;28;1832;-71
2022/02/01 21:03:46;;;;;;;;;;;;;;;1.80;100.00;95168.63;10522359;28;1948;-70
2022/02/01 21:08:50;;;;;;;;;;;;;;;1.90;100.00;95138.88;10525410;28;1862;-70
2022/02/01 21:14:15;;;;;;;;;;;;;;;2.00;100.00;95157.63;10515114;28;1934;-70
2022/02/01 21:19:18;;;;;;;;;;;;;;;2.04;100.00;95168.59;10505591;28;2027;-71
2022/02/01 21:24:22;;;;;;;;;;;;;;;2.05;100.00;95181.59;10508089;28;1953;-69
2022/02/01 21:29:25;;;;;;;;;;;;;;;2.09;100.00;95171.31;10512970;28;1834;-71
2022/02/01 21:34:29;;;;;;;;;;;;;;;2.14;100.00;95143.06;10518004;28;1848;-71
2022/02/01 21:39:32;;;;;;;;;;;;;;;2.20;100.00;95167.84;10516809;28;1886;-72
2022/02/01 21:44:35;;;;;;;;;;;;;;;2.21;100.00;95176.59;10519682;28;2054;-71
2022/02/01 21:49:39;;;;;;;;;;;;;;;2.27;100.00;95186.25;10521264;28;1796;-71
2022/02/01 21:54:43;;;;;;;;;;;;;;;2.24;100.00;95189.41;10521845;28;1881;-72
2022/02/01 21:59:47;;;;;;;;;;;;;;;2.22;100.00;95179.00;10512896;28;1823;-72
2022/02/01 22:04:51;;;;;;;;;;;;;;;2.22;100.00;95176.34;10511982;28;2047;-72
2022/02/01 22:09:59;;;;;;;;;;;;;;;2.15;100.00;95187.09;10513542;28;1855;-71
2022/02/01 22:15:03;;;;;;;;;;;;;;;2.10;100.00;95194.13;10517080;28;1822;-71
2022/02/01 22:20:06;;;;;;;;;;;;;;;2.12;100.00;95182.28;10519404;28;1819;-71
2022/02/01 22:25:10;;;;;;;;;;;;;;;2.15;100.00;95171.19;10524528;28;1995;-72
2022/02/01 22:30:13;;;;;;;;;;;;;;;2.24;100.00;95165.53;10521908;28;1893;-72
2022/02/01 22:35:17;;;;;;;;;;;;;;;2.26;100.00;95176.69;10518116;28;2546;-72
2022/02/01 22:40:21;;;;;;;;;;;;;;;2.33;100.00;95191.44;10517557;28;1803;-70
2022/02/01 22:45:26;;;;;;;;;;;;;;;2.20;100.00;95185.59;10514077;28;1979;-72
2022/02/01 22:50:30;;;;;;;;;;;;;;;2.07;100.00;95190.13;10513899;28;1871;-72
2022/02/01 22:55:33;;;;;;;;;;;;;;;2.11;100.00;95180.66;10516168;28;1910;-71
2022/02/01 23:00:39;;;;;;;;;;;;;;;2.07;100.00;95168.09;10518672;28;1823;-74
2022/02/01 23:05:45;;;;;;;;;;;;;;;2.01;100.00;95151.28;10510304;28;1922;-71
2022/02/01 23:10:56;;;;;;;;;;;;;;;2.07;100.00;95168.91;10515594;28;1857;-71
2022/02/01 23:21:17;;;;;;;;;;;;;;;2.11;100.00;95167.41;10512724;28;1819;-71
2022/02/01 23:26:20;;;;;;;;;;;;;;;2.13;100.00;95194.47;10511094;28;1929;-72
2022/02/01 23:31:32;;;;;;;;;;;;;;;2.20;100.00;95165.19;10512517;28;1853;-71
2022/02/01 23:36:56;;;;;;;;;;;;;;;2.24;100.00;95184.09;10510608;28;1784;-71
2022/02/01 23:52:43;;;;;;;;;;;;;;;1.95;100.00;95234.41;10510725;28;1838;-71
2022/02/01 23:57:53;;;;;;;;;;;;;;;2.01;100.00;95214.91;10517287;28;1828;-72
